Itariri, Brazil
Current Conditions -  °F | °C
As of 10:00 PM on Saturday 25 Oct 2014 (Local Time) from SBSP Reporting Station
Overcast Overcast  
Wind Chill: 68°   Ceiling: 800
Heat Index: 68°   Visibility: 5mi
Dew Point: 61°   Wind: 3mph
Humidity: 78%   Direction: 110°ESE
Pressure: 30.06"   Gusts: NA
Location:  24.29°S, 47.17°W
Report Text: SBSP 260000Z 11003KT 8000 SCT005 OVC008 20/16 Q1018
Loading
Personal Weather Stations






























Interactive Weather Map
Tropical Storm Tracking
New forecast layout! Learn more

10-Day Weather Forecast

Advertisements
Track Severe Weather on mobile